Time;durP1;ratioP1;P1;durP2;ratioP2;P2;SDS_P1;SDS_P2;PMS_P1;PMS_P2;Temp;Humidity;BMP_temperature;BMP_pressure;BME280_temperature;BME280_humidity;BME280_pressure;Samples;Min_cycle;Max_cycle;Signal;HPM_P1;HPM_P2
2021/10/04 00:01:13;;;;;;;6.68;1.45;;;12.10;78.30;;;;;;4834963;29;20073;-81
2021/10/04 00:03:40;;;;;;;6.35;1.00;;;12.10;78.30;;;;;;4846285;29;20034;-79
2021/10/04 00:06:09;;;;;;;3.25;1.00;;;12.10;78.30;;;;;;4836291;29;20065;-78
2021/10/04 00:08:35;;;;;;;5.80;1.40;;;12.00;78.20;;;;;;4836450;29;20042;-80
2021/10/04 00:11:02;;;;;;;3.78;1.10;;;12.00;78.30;;;;;;4836425;29;20034;-82
2021/10/04 00:13:28;;;;;;;4.47;1.05;;;12.00;78.30;;;;;;4844535;29;20120;-85
2021/10/04 00:15:54;;;;;;;5.78;1.40;;;12.00;78.30;;;;;;4844652;29;20610;-77
2021/10/04 00:18:20;;;;;;;6.18;1.50;;;12.00;78.40;;;;;;4854089;29;20049;-79
2021/10/04 00:20:47;;;;;;;4.78;1.40;;;11.90;78.20;;;;;;4854831;29;20791;-80
2021/10/04 00:23:13;;;;;;;4.85;1.23;;;12.00;78.40;;;;;;4854081;29;20037;-85
2021/10/04 00:25:39;;;;;;;4.97;1.00;;;12.00;78.50;;;;;;4855026;29;20049;-87
2021/10/04 00:28:05;;;;;;;5.70;1.27;;;12.00;78.60;;;;;;4854394;29;20037;-83
2021/10/04 00:30:31;;;;;;;3.35;1.15;;;12.00;78.70;;;;;;4855168;29;20033;-79
2021/10/04 00:32:58;;;;;;;4.38;1.30;;;11.90;78.50;;;;;;4853170;29;20056;-76
2021/10/04 00:35:25;;;;;;;5.72;1.30;;;11.90;78.60;;;;;;4854498;29;20033;-84
2021/10/04 00:37:53;;;;;;;8.25;2.08;;;11.90;78.70;;;;;;4855097;29;20093;-80
2021/10/04 00:40:30;;;;;;;5.10;1.40;;;11.90;78.70;;;;;;4854084;29;20041;-79
2021/10/04 00:42:57;;;;;;;8.35;1.35;;;12.00;79.00;;;;;;4851407;29;20026;-85
2021/10/04 00:45:25;;;;;;;4.35;1.27;;;11.90;78.80;;;;;;4829480;29;20053;-77
2021/10/04 00:47:51;;;;;;;5.50;1.38;;;11.90;78.80;;;;;;4836394;29;20137;-81
2021/10/04 00:50:19;;;;;;;6.47;1.98;;;11.90;78.80;;;;;;4852346;29;20248;-82
2021/10/04 00:52:45;;;;;;;4.75;1.48;;;11.90;78.90;;;;;;4859009;29;20041;-84
2021/10/04 00:55:12;;;;;;;4.95;1.73;;;11.90;78.90;;;;;;4861397;29;20109;-81
2021/10/04 00:57:38;;;;;;;2.17;1.08;;;11.90;79.40;;;;;;4859321;29;20056;-83
2021/10/04 01:00:13;;;;;;;6.07;1.60;;;11.90;78.90;;;;;;4844434;29;20030;-85
2021/10/04 01:02:40;;;;;;;5.93;1.60;;;11.90;79.20;;;;;;4842082;29;20116;-84
2021/10/04 01:05:08;;;;;;;5.68;1.38;;;11.90;78.90;;;;;;4850588;29;20091;-85
2021/10/04 01:07:34;;;;;;;5.68;1.55;;;11.90;78.90;;;;;;4841650;29;20120;-78
2021/10/04 01:10:00;;;;;;;4.70;1.30;;;11.90;78.90;;;;;;4842608;29;20112;-86
2021/10/04 01:12:26;;;;;;;4.38;1.27;;;11.90;79.00;;;;;;4842705;29;20034;-81
2021/10/04 01:14:52;;;;;;;5.65;1.35;;;11.90;79.00;;;;;;4859209;29;20189;-87
2021/10/04 01:17:21;;;;;;;5.30;1.20;;;11.90;79.00;;;;;;4851790;29;20048;-83
2021/10/04 01:19:49;;;;;;;5.15;1.40;;;11.90;79.00;;;;;;4860706;29;20041;-82
2021/10/04 01:22:16;;;;;;;4.97;1.02;;;11.90;79.00;;;;;;4860881;29;20829;-82
2021/10/04 01:24:42;;;;;;;7.65;1.20;;;11.80;78.80;;;;;;4860443;29;20037;-81
2021/10/04 01:27:08;;;;;;;4.07;1.45;;;11.80;78.90;;;;;;4854104;29;20046;-84
2021/10/04 01:29:35;;;;;;;3.17;1.00;;;11.90;79.00;;;;;;4869795;29;20088;-84
2021/10/04 01:32:01;;;;;;;5.85;1.40;;;11.80;78.90;;;;;;4856152;29;20037;-85
2021/10/04 01:34:27;;;;;;;5.97;1.90;;;11.80;78.90;;;;;;4861316;29;20099;-84
2021/10/04 01:36:52;;;;;;;5.70;1.55;;;11.80;79.00;;;;;;4861568;29;20465;-79
2021/10/04 01:39:18;;;;;;;6.53;1.30;;;11.80;79.00;;;;;;4860884;29;20034;-81
2021/10/04 01:41:44;;;;;;;5.32;1.40;;;11.80;79.10;;;;;;4860113;29;20029;-85
2021/10/04 01:44:11;;;;;;;4.90;1.50;;;11.80;79.10;;;;;;4861622;29;20097;-80
2021/10/04 01:46:37;;;;;;;6.53;1.58;;;11.80;79.10;;;;;;4849834;29;20534;-85
2021/10/04 01:49:03;;;;;;;5.25;1.17;;;11.90;79.30;;;;;;4864674;29;20069;-85
2021/10/04 01:51:29;;;;;;;1.63;0.90;;;11.90;79.30;;;;;;4864434;29;20038;-84
2021/10/04 01:53:55;;;;;;;7.18;1.63;;;11.80;79.10;;;;;;4864469;29;20041;-85
2021/10/04 01:56:21;;;;;;;4.60;1.17;;;11.80;79.20;;;;;;4863450;29;20128;-85
2021/10/04 01:58:46;;;;;;;2.90;1.05;;;11.80;79.20;;;;;;4865353;29;20045;-88
2021/10/04 02:01:13;;;;;;;2.83;1.42;;;11.80;79.20;;;;;;4863082;29;20096;-85
2021/10/04 02:03:39;;;;;;;9.77;1.20;;;11.90;79.90;;;;;;4861911;29;20065;-83
2021/10/04 02:06:05;;;;;;;3.42;1.15;;;11.80;79.20;;;;;;4861248;29;20089;-87
2021/10/04 02:08:32;;;;;;;4.22;1.48;;;11.80;79.20;;;;;;4861121;29;20094;-87
2021/10/04 02:10:58;;;;;;;6.38;1.30;;;11.80;79.20;;;;;;4862483;29;20470;-90
2021/10/04 02:13:24;;;;;;;5.80;1.25;;;11.80;79.10;;;;;;4861442;29;20519;-79
2021/10/04 02:15:51;;;;;;;4.55;0.80;;;11.90;79.30;;;;;;4860975;29;20034;-79
2021/10/04 02:18:17;;;;;;;6.03;1.08;;;11.80;79.10;;;;;;4852221;29;20046;-86
2021/10/04 02:20:45;;;;;;;3.03;0.90;;;11.80;79.20;;;;;;4859904;29;20045;-79
2021/10/04 02:23:12;;;;;;;6.53;1.98;;;11.80;79.10;;;;;;4861276;29;20053;-83
2021/10/04 02:25:51;;;;;;;6.95;1.05;;;11.80;79.10;;;;;;4861112;29;20029;-81
2021/10/04 02:28:18;;;;;;;5.07;0.98;;;11.80;79.20;;;;;;4861076;29;20061;-84
2021/10/04 02:30:44;;;;;;;3.60;1.33;;;11.80;79.10;;;;;;4859882;29;20112;-84
2021/10/04 02:33:11;;;;;;;2.85;0.82;;;11.80;79.10;;;;;;4860663;29;20128;-79
2021/10/04 02:35:38;;;;;;;5.18;1.20;;;11.80;79.10;;;;;;4860040;29;20555;-82
2021/10/04 02:38:05;;;;;;;7.43;1.25;;;11.80;79.10;;;;;;4860988;29;20520;-81
2021/10/04 02:40:31;;;;;;;4.13;1.17;;;11.80;79.10;;;;;;4860640;29;20030;-80
2021/10/04 02:42:57;;;;;;;3.97;0.88;;;11.80;79.60;;;;;;4861068;29;20040;-82
2021/10/04 02:45:25;;;;;;;3.08;1.15;;;11.80;79.10;;;;;;4859221;29;20492;-81
2021/10/04 02:47:55;;;;;;;4.70;1.13;;;11.80;79.10;;;;;;4849523;29;20073;-80
2021/10/04 02:50:22;;;;;;;2.83;0.90;;;11.70;78.90;;;;;;4860549;29;20039;-81
2021/10/04 02:52:50;;;;;;;3.17;0.88;;;11.70;78.90;;;;;;4859318;29;20037;-80
2021/10/04 02:55:19;;;;;;;6.90;1.77;;;11.70;79.00;;;;;;4859453;29;20038;-79
2021/10/04 02:57:45;;;;;;;5.82;1.73;;;11.70;79.00;;;;;;4860266;29;20044;-83
2021/10/04 03:00:14;;;;;;;3.38;0.90;;;11.70;79.00;;;;;;4860263;29;20033;-82
2021/10/04 03:02:41;;;;;;;4.43;1.50;;;11.70;79.00;;;;;;4859921;29;20070;-83
2021/10/04 03:05:07;;;;;;;4.50;0.73;;;11.70;79.00;;;;;;4843347;29;20034;-84
2021/10/04 03:07:33;;;;;;;6.38;2.25;;;11.70;79.10;;;;;;4859128;29;20442;-82
2021/10/04 03:09:59;;;;;;;4.20;0.88;;;11.70;79.10;;;;;;4860310;29;20044;-81
2021/10/04 03:12:25;;;;;;;6.45;1.35;;;11.70;79.10;;;;;;4860723;29;20038;-84
2021/10/04 03:14:51;;;;;;;4.45;0.90;;;11.70;79.10;;;;;;4859931;29;20033;-82
2021/10/04 03:17:17;;;;;;;6.20;0.90;;;11.70;79.10;;;;;;4860031;29;20119;-82
2021/10/04 03:19:43;;;;;;;3.58;0.82;;;11.60;79.00;;;;;;4851424;29;20033;-85
2021/10/04 03:22:10;;;;;;;4.13;0.70;;;11.60;79.00;;;;;;4860287;29;20037;-80
2021/10/04 03:24:36;;;;;;;2.72;0.70;;;11.60;79.00;;;;;;4856527;29;20065;-83
2021/10/04 03:27:02;;;;;;;6.95;0.90;;;11.60;79.00;;;;;;4857163;29;20532;-84
2021/10/04 03:29:28;;;;;;;3.58;0.93;;;11.60;79.00;;;;;;4860487;29;20413;-83
2021/10/04 03:31:54;;;;;;;8.05;1.20;;;11.60;79.00;;;;;;4859892;29;20037;-81
2021/10/04 03:34:21;;;;;;;3.75;0.82;;;11.60;79.00;;;;;;4858796;29;20029;-80
2021/10/04 03:36:47;;;;;;;4.18;1.10;;;11.60;79.00;;;;;;4860267;29;20049;-86
2021/10/04 03:39:13;;;;;;;7.57;1.45;;;11.60;79.00;;;;;;4859968;29;20124;-82
2021/10/04 03:41:39;;;;;;;5.40;2.30;;;11.60;79.10;;;;;;4858659;29;20033;-85
2021/10/04 03:44:05;;;;;;;3.83;1.52;;;11.50;78.90;;;;;;4843729;29;20558;-86
2021/10/04 03:46:32;;;;;;;4.13;1.10;;;11.50;78.90;;;;;;4846637;29;20049;-81
2021/10/04 03:48:58;;;;;;;3.08;1.30;;;11.50;78.90;;;;;;4850684;29;20041;-79
2021/10/04 03:51:24;;;;;;;3.38;1.05;;;11.50;78.90;;;;;;4859528;29;20025;-82
2021/10/04 03:53:50;;;;;;;6.22;1.30;;;11.50;79.00;;;;;;4858531;29;20474;-82
2021/10/04 03:56:16;;;;;;;2.42;0.98;;;11.50;79.00;;;;;;4858677;29;20040;-79
2021/10/04 03:58:42;;;;;;;6.20;1.15;;;11.40;78.90;;;;;;4859750;29;20136;-81
2021/10/04 04:01:10;;;;;;;3.72;1.02;;;11.50;79.10;;;;;;4858835;29;20029;-86
2021/10/04 04:03:37;;;;;;;4.20;0.73;;;11.50;79.10;;;;;;4874913;29;20040;-89
2021/10/04 04:06:04;;;;;;;4.18;1.27;;;11.40;79.00;;;;;;4860017;29;20033;-83
2021/10/04 04:08:33;;;;;;;2.88;1.20;;;11.50;79.30;;;;;;4849048;29;20045;-84
2021/10/04 04:11:03;;;;;;;3.42;1.00;;;11.50;79.30;;;;;;4841485;29;20125;-83
2021/10/04 04:13:29;;;;;;;3.03;0.90;;;11.50;79.30;;;;;;4841203;29;20034;-80
2021/10/04 04:15:55;;;;;;;2.72;1.13;;;11.50;79.30;;;;;;4841006;29;20037;-83
2021/10/04 04:18:21;;;;;;;3.88;1.00;;;11.50;79.40;;;;;;4859916;29;20041;-81
2021/10/04 04:20:47;;;;;;;2.83;1.05;;;11.50;79.40;;;;;;4850049;29;20089;-83
2021/10/04 04:23:14;;;;;;;6.40;0.95;;;11.50;79.40;;;;;;4859871;29;20085;-81
2021/10/04 04:25:40;;;;;;;3.15;1.00;;;11.50;79.30;;;;;;4859548;29;20032;-84
2021/10/04 04:28:06;;;;;;;3.80;0.70;;;11.50;79.30;;;;;;4857524;29;20030;-82
2021/10/04 04:30:32;;;;;;;3.00;1.00;;;11.50;79.20;;;;;;4859052;29;20048;-85
2021/10/04 04:32:58;;;;;;;3.00;0.90;;;11.50;79.20;;;;;;4858052;29;20037;-83
2021/10/04 04:35:24;;;;;;;2.60;0.95;;;11.40;79.00;;;;;;4859373;29;20041;-81
2021/10/04 04:37:50;;;;;;;1.48;0.90;;;11.50;79.20;;;;;;4858837;29;20401;-86
2021/10/04 04:40:21;;;;;;;2.35;0.70;;;11.40;79.00;;;;;;4859446;29;20084;-80
2021/10/04 04:42:47;;;;;;;2.20;0.57;;;11.40;79.00;;;;;;4858625;29;20486;-83
2021/10/04 04:45:19;;;;;;;1.92;0.75;;;11.40;78.90;;;;;;4859212;29;20093;-82
2021/10/04 04:47:46;;;;;;;0.63;0.53;;;11.40;79.00;;;;;;4855882;29;20057;-82
2021/10/04 04:50:14;;;;;;;2.83;0.75;;;11.40;78.90;;;;;;4847294;29;20538;-79
2021/10/04 04:52:40;;;;;;;3.00;0.70;;;11.30;78.80;;;;;;4855628;29;20505;-82
2021/10/04 04:55:07;;;;;;;5.97;1.70;;;11.40;79.00;;;;;;4848688;29;20041;-80
2021/10/04 04:57:34;;;;;;;2.17;0.70;;;11.40;79.00;;;;;;4850936;29;20523;-82
2021/10/04 05:00:00;;;;;;;4.15;0.77;;;11.40;79.00;;;;;;4836890;29;20124;-80
2021/10/04 05:02:26;;;;;;;1.90;0.98;;;11.30;78.90;;;;;;4829328;29;20307;-81
2021/10/04 05:04:52;;;;;;;1.92;1.15;;;11.40;79.10;;;;;;4851978;29;20512;-79
2021/10/04 05:07:18;;;;;;;2.28;0.80;;;11.30;78.90;;;;;;4853245;29;20029;-82
2021/10/04 05:09:44;;;;;;;1.25;0.50;;;11.30;78.90;;;;;;4843542;29;20489;-80
2021/10/04 05:12:10;;;;;;;3.88;0.80;;;11.30;78.90;;;;;;4839102;29;20180;-79
2021/10/04 05:14:36;;;;;;;4.57;1.52;;;11.30;78.90;;;;;;4854140;29;20554;-85
2021/10/04 05:17:02;;;;;;;1.73;0.60;;;11.30;78.90;;;;;;4854242;29;20140;-80
2021/10/04 05:19:28;;;;;;;3.95;0.85;;;11.30;78.90;;;;;;4854513;29;20124;-81
2021/10/04 05:21:54;;;;;;;3.03;0.90;;;11.30;78.90;;;;;;4843867;29;20569;-84
2021/10/04 05:24:20;;;;;;;3.80;1.20;;;11.30;78.90;;;;;;4819485;29;20196;-80
2021/10/04 05:26:46;;;;;;;2.97;0.60;;;11.30;78.90;;;;;;4835234;29;20034;-82
2021/10/04 05:29:12;;;;;;;1.05;0.77;;;11.20;78.80;;;;;;4850295;29;20065;-81
2021/10/04 05:31:38;;;;;;;1.98;0.80;;;11.30;78.90;;;;;;4853007;29;20942;-79
2021/10/04 05:34:04;;;;;;;1.80;0.60;;;11.20;78.80;;;;;;4853613;29;20033;-78
2021/10/04 05:36:31;;;;;;;2.65;0.70;;;11.20;78.80;;;;;;4850516;29;20034;-80
2021/10/04 05:38:58;;;;;;;1.83;0.60;;;11.20;78.80;;;;;;4838041;29;20034;-82
2021/10/04 05:41:24;;;;;;;3.40;0.70;;;11.20;78.90;;;;;;4848402;29;20072;-87
2021/10/04 05:43:50;;;;;;;4.40;1.27;;;11.20;78.90;;;;;;4855916;29;20472;-80
2021/10/04 05:46:16;;;;;;;2.45;0.55;;;11.20;78.90;;;;;;4856939;29;20033;-80
2021/10/04 05:48:41;;;;;;;0.90;0.40;;;11.20;78.90;;;;;;4845670;29;20045;-83
2021/10/04 05:51:09;;;;;;;1.40;0.50;;;11.20;79.00;;;;;;4838885;29;20050;-84
2021/10/04 05:53:36;;;;;;;2.05;0.75;;;11.20;79.00;;;;;;4852441;29;20042;-89
2021/10/04 05:56:03;;;;;;;13.43;3.20;;;11.30;79.20;;;;;;4824875;29;20696;-83
2021/10/04 05:58:29;;;;;;;4.90;2.28;;;11.30;79.40;;;;;;4836987;29;20174;-86
2021/10/04 06:00:55;;;;;;;6.18;1.75;;;11.30;79.60;;;;;;4838338;29;20418;-83
2021/10/04 06:03:21;;;;;;;5.50;2.55;;;11.30;80.30;;;;;;4842818;29;20072;-81
2021/10/04 06:05:47;;;;;;;2.78;1.85;;;11.30;79.80;;;;;;4851530;29;20038;-82
2021/10/04 06:08:13;;;;;;;2.05;1.40;;;11.40;80.00;;;;;;4848472;29;20049;-84
2021/10/04 06:10:39;;;;;;;3.08;1.70;;;11.40;80.00;;;;;;4846246;29;20081;-81
2021/10/04 06:13:05;;;;;;;2.80;1.63;;;11.40;80.00;;;;;;4856655;29;20026;-80
2021/10/04 06:15:32;;;;;;;5.93;1.80;;;11.40;80.00;;;;;;4852571;29;20034;-83
2021/10/04 06:17:57;;;;;;;4.95;1.20;;;11.40;80.00;;;;;;4848802;29;20338;-82
2021/10/04 06:20:23;;;;;;;2.47;1.42;;;11.40;80.50;;;;;;4855374;29;20029;-82
2021/10/04 06:22:50;;;;;;;7.32;2.42;;;11.30;79.80;;;;;;4847701;29;20038;-81
2021/10/04 06:25:17;;;;;;;4.70;2.28;;;11.40;80.00;;;;;;4838326;29;20037;-80
2021/10/04 06:27:45;;;;;;;4.93;1.88;;;11.40;80.30;;;;;;4837817;29;20038;-79
2021/10/04 06:30:12;;;;;;;4.70;2.08;;;11.40;80.40;;;;;;4838397;29;20183;-82
2021/10/04 06:32:39;;;;;;;4.68;1.65;;;11.40;80.40;;;;;;4821839;29;20400;-83
2021/10/04 06:35:05;;;;;;;2.28;1.70;;;11.40;80.40;;;;;;4846406;29;20037;-81
2021/10/04 06:37:31;;;;;;;3.45;1.77;;;11.50;80.60;;;;;;4854311;29;20193;-82
2021/10/04 06:39:57;;;;;;;3.20;1.58;;;11.40;80.30;;;;;;4837826;29;20064;-81
2021/10/04 06:42:24;;;;;;;4.68;1.77;;;11.40;80.30;;;;;;4854784;29;20097;-80
2021/10/04 06:44:54;;;;;;;2.38;1.27;;;11.40;80.30;;;;;;4854286;29;20033;-81
2021/10/04 06:47:20;;;;;;;2.53;1.58;;;11.40;80.30;;;;;;4845734;29;20102;-84
2021/10/04 06:49:46;;;;;;;2.95;1.45;;;11.40;80.20;;;;;;4844667;29;20038;-80
2021/10/04 06:52:12;;;;;;;2.17;1.38;;;11.40;80.20;;;;;;4834870;29;20041;-83
2021/10/04 06:54:38;;;;;;;3.20;1.52;;;11.40;80.20;;;;;;4836334;29;20098;-83
2021/10/04 06:57:06;;;;;;;4.13;1.30;;;11.40;80.10;;;;;;4853518;29;20041;-80
2021/10/04 06:59:33;;;;;;;4.30;1.88;;;11.50;80.30;;;;;;4854355;29;20080;-80
2021/10/04 07:01:59;;;;;;;2.70;1.80;;;11.40;80.10;;;;;;4851936;29;20041;-84
2021/10/04 07:04:25;;;;;;;2.67;0.88;;;11.50;80.30;;;;;;4819415;29;20034;-84
2021/10/04 07:06:51;;;;;;;3.13;1.20;;;11.40;80.60;;;;;;4836670;29;20045;-81
2021/10/04 07:09:17;;;;;;;3.55;0.90;;;11.40;80.00;;;;;;4836377;29;20046;-83
2021/10/04 07:11:43;;;;;;;3.88;1.15;;;11.40;80.00;;;;;;4837181;29;20034;-82
2021/10/04 07:14:09;;;;;;;3.92;1.13;;;11.40;80.00;;;;;;4853095;29;20482;-82
2021/10/04 07:16:35;;;;;;;3.90;1.30;;;11.40;80.00;;;;;;4855188;29;20044;-81
2021/10/04 07:19:03;;;;;;;2.20;0.93;;;11.50;80.20;;;;;;4842675;29;20042;-84
2021/10/04 07:21:30;;;;;;;2.70;1.70;;;11.40;80.00;;;;;;4836423;29;20049;-80
2021/10/04 07:23:56;;;;;;;2.63;1.02;;;11.40;80.00;;;;;;4836947;29;20034;-82
2021/10/04 07:26:23;;;;;;;3.80;1.00;;;11.40;80.00;;;;;;4837100;29;20045;-80
2021/10/04 07:28:52;;;;;;;3.03;0.98;;;11.40;79.90;;;;;;4847298;29;20104;-81
2021/10/04 07:31:18;;;;;;;1.52;1.13;;;11.50;80.10;;;;;;4855106;29;20121;-81
2021/10/04 07:33:45;;;;;;;2.33;1.00;;;11.50;80.10;;;;;;4855117;29;20037;-84
2021/10/04 07:36:12;;;;;;;1.55;0.80;;;11.50;80.10;;;;;;4854794;29;20041;-80
2021/10/04 07:38:38;;;;;;;2.45;0.77;;;11.50;80.10;;;;;;4845161;29;20497;-83
2021/10/04 07:41:06;;;;;;;4.97;1.75;;;11.60;80.30;;;;;;4836905;29;20034;-81
2021/10/04 07:43:33;;;;;;;2.58;0.85;;;11.60;80.20;;;;;;4838548;29;20375;-82
2021/10/04 07:46:01;;;;;;;2.97;0.65;;;11.60;80.20;;;;;;4848031;29;20041;-83
2021/10/04 07:48:27;;;;;;;1.77;0.75;;;11.60;80.20;;;;;;4854576;29;20332;-82
2021/10/04 07:50:53;;;;;;;1.33;0.80;;;11.70;80.80;;;;;;4855063;29;20068;-86
2021/10/04 07:53:19;;;;;;;1.77;0.82;;;11.70;80.30;;;;;;4854953;29;20089;-83
2021/10/04 07:55:45;;;;;;;2.05;0.65;;;11.70;80.30;;;;;;4855113;29;20037;-82
2021/10/04 07:58:12;;;;;;;3.60;1.45;;;11.70;80.20;;;;;;4849044;29;20093;-83
2021/10/04 08:00:39;;;;;;;2.22;0.73;;;11.70;80.20;;;;;;4836241;29;20498;-81
2021/10/04 08:03:05;;;;;;;2.40;0.68;;;11.70;80.10;;;;;;4828205;29;20042;-79
2021/10/04 08:05:32;;;;;;;4.25;0.88;;;11.80;80.30;;;;;;4854055;29;20025;-79
2021/10/04 08:07:59;;;;;;;2.03;1.00;;;11.80;80.20;;;;;;4853948;29;20034;-82
2021/10/04 08:10:25;;;;;;;1.50;0.57;;;11.90;80.40;;;;;;4854635;29;20044;-80
2021/10/04 08:12:51;;;;;;;3.08;0.90;;;11.90;80.30;;;;;;4854257;29;20025;-80
2021/10/04 08:15:19;;;;;;;4.03;1.05;;;11.90;80.30;;;;;;4855112;29;20087;-86
2021/10/04 08:17:45;;;;;;;5.03;2.42;;;12.00;80.50;;;;;;4854592;29;20511;-84
2021/10/04 08:20:11;;;;;;;6.28;2.20;;;12.00;80.60;;;;;;4835740;29;20036;-85
2021/10/04 08:22:39;;;;;;;4.53;3.03;;;12.10;81.20;;;;;;4835861;29;20045;-79
2021/10/04 08:25:06;;;;;;;3.40;1.92;;;12.20;81.70;;;;;;4836732;29;20038;-85
2021/10/04 08:27:33;;;;;;;4.75;2.10;;;12.40;82.10;;;;;;4837544;29;20389;-81
2021/10/04 08:29:59;;;;;;;5.40;2.00;;;12.50;82.20;;;;;;4848003;29;20072;-81
2021/10/04 08:32:25;;;;;;;5.22;2.03;;;12.60;82.20;;;;;;4850776;29;20404;-83
2021/10/04 08:34:51;;;;;;;5.05;1.35;;;12.70;82.30;;;;;;4838434;29;20042;-84
2021/10/04 08:37:17;;;;;;;7.95;2.15;;;12.70;82.10;;;;;;4842813;29;20041;-82
2021/10/04 08:39:43;;;;;;;3.00;1.27;;;12.80;82.20;;;;;;4847354;29;20447;-83
2021/10/04 08:42:09;;;;;;;1.90;1.10;;;12.80;82.00;;;;;;4842470;29;20064;-86
2021/10/04 08:44:37;;;;;;;8.15;1.50;;;12.90;82.10;;;;;;4837241;29;20025;-80
2021/10/04 08:47:06;;;;;;;3.95;1.27;;;12.90;82.00;;;;;;4849709;29;20064;-82
2021/10/04 08:49:33;;;;;;;3.70;1.20;;;12.90;81.90;;;;;;4841392;29;20034;-81
2021/10/04 08:52:00;;;;;;;4.82;1.58;;;12.90;81.90;;;;;;4837463;29;20042;-80
2021/10/04 08:54:29;;;;;;;5.32;1.40;;;12.90;81.80;;;;;;4839573;29;20125;-80
2021/10/04 08:56:56;;;;;;;2.78;1.48;;;12.90;81.70;;;;;;4838045;29;20050;-79
2021/10/04 08:59:23;;;;;;;3.97;1.52;;;13.00;81.90;;;;;;4839064;29;20033;-80
2021/10/04 09:01:49;;;;;;;3.20;1.00;;;13.00;81.80;;;;;;4823147;29;20042;-81
2021/10/04 09:04:20;;;;;;;1.63;1.17;;;13.00;81.70;;;;;;4867427;29;20042;-79
2021/10/04 09:06:48;;;;;;;4.25;1.38;;;13.00;81.70;;;;;;4861035;29;20034;-81
2021/10/04 09:09:17;;;;;;;2.72;1.50;;;13.10;81.80;;;;;;4856618;29;20037;-80
2021/10/04 09:11:49;;;;;;;5.07;1.00;;;13.10;81.70;;;;;;4854152;29;20045;-79
2021/10/04 09:14:18;;;;;;;4.68;1.33;;;13.20;81.80;;;;;;4863453;29;20029;-78
2021/10/04 09:16:54;;;;;;;5.78;1.92;;;13.30;81.80;;;;;;4871671;29;20120;-78
2021/10/04 09:19:25;;;;;;;4.28;1.20;;;13.50;82.00;;;;;;4873750;29;20038;-77
2021/10/04 09:22:10;;;;;;;2.58;0.95;;;13.70;82.10;;;;;;4859025;29;20195;-78
2021/10/04 09:24:56;;;;;;;3.30;0.98;;;13.80;81.90;;;;;;4845307;29;20029;-77
2021/10/04 09:27:24;;;;;;;3.95;1.20;;;14.00;81.90;;;;;;4858963;29;20046;-79
2021/10/04 09:29:51;;;;;;;9.05;1.52;;;14.20;81.80;;;;;;4868450;29;20090;-80
2021/10/04 09:32:26;;;;;;;5.00;0.90;;;14.30;81.70;;;;;;4858562;29;20210;-79
2021/10/04 09:35:10;;;;;;;2.83;0.80;;;14.50;81.70;;;;;;4857097;29;20033;-79
2021/10/04 09:37:39;;;;;;;3.72;1.30;;;14.70;81.60;;;;;;4842153;29;20077;-77
2021/10/04 09:40:05;;;;;;;4.20;0.95;;;14.70;81.20;;;;;;4844594;29;20034;-77
2021/10/04 09:42:39;;;;;;;3.05;0.90;;;14.90;81.20;;;;;;4845315;29;20044;-78
2021/10/04 09:45:06;;;;;;;2.58;0.80;;;15.00;80.90;;;;;;4843341;29;20069;-78
2021/10/04 09:47:39;;;;;;;1.80;1.00;;;15.00;80.70;;;;;;4850932;29;20060;-79
2021/10/04 09:50:08;;;;;;;;;;;15.00;80.60;;;;;;4840008;29;20038;-78
2021/10/04 09:52:38;;;;;;;8.70;1.75;;;15.00;80.50;;;;;;4838054;29;20281;-78
2021/10/04 09:55:18;;;;;;;1.80;0.50;;;15.00;80.40;;;;;;4837626;29;20045;-77
2021/10/04 09:58:06;;;;;;;2.67;0.70;;;15.00;80.20;;;;;;4837835;29;20061;-78
2021/10/04 10:00:44;;;;;;;2.42;1.08;;;15.10;80.30;;;;;;4838386;29;20501;-78
2021/10/04 10:03:13;;;;;;;2.70;0.82;;;15.10;80.20;;;;;;4847764;29;20497;-79
2021/10/04 10:05:50;;;;;;;4.88;1.33;;;15.20;80.30;;;;;;4856644;29;20037;-78
2021/10/04 10:08:18;;;;;;;5.43;2.15;;;15.20;80.00;;;;;;4856913;29;20093;-80
2021/10/04 10:10:45;;;;;;;3.72;1.50;;;15.30;80.00;;;;;;4850835;29;20041;-78
2021/10/04 10:13:14;;;;;;;5.45;2.03;;;15.40;79.90;;;;;;4842304;29;20402;-78
2021/10/04 10:15:46;;;;;;;1.98;1.00;;;15.50;79.80;;;;;;4838196;29;20034;-78
2021/10/04 10:18:26;;;;;;;3.47;0.70;;;15.50;79.50;;;;;;4851101;29;20052;-80
2021/10/04 10:20:59;;;;;;;2.80;1.48;;;15.60;79.40;;;;;;4836731;29;20073;-81
2021/10/04 10:23:44;;;;;;;;;;;15.70;79.50;;;;;;4844881;29;20034;-79
2021/10/04 10:26:27;;;;;;;5.10;1.08;;;15.80;79.60;;;;;;4854981;29;19916;-81
2021/10/04 10:29:12;;;;;;;4.57;1.33;;;16.00;79.60;;;;;;4854993;29;20417;-84
2021/10/04 10:31:48;;;;;;;5.60;1.13;;;16.10;79.40;;;;;;4856040;29;20065;-80
2021/10/04 10:34:29;;;;;;;4.70;1.45;;;16.30;79.30;;;;;;4857648;29;20046;-78
2021/10/04 10:37:04;;;;;;;4.45;0.95;;;16.50;79.10;;;;;;4856450;29;20089;-79
2021/10/04 10:39:41;;;;;;;5.38;1.40;;;16.60;78.90;;;;;;4855818;29;20033;-79
2021/10/04 10:42:31;;;;;;;8.55;2.00;;;16.60;78.50;;;;;;4852644;29;20422;-82
2021/10/04 10:44:57;;;;;;;11.27;2.88;;;16.70;78.70;;;;;;4851872;29;20524;-78
2021/10/04 10:47:38;;;;;;;5.93;2.33;;;16.80;79.10;;;;;;4856334;29;20085;-80
2021/10/04 10:50:23;;;;;;;8.68;1.75;;;16.90;79.40;;;;;;4856099;29;20478;-80
2021/10/04 10:52:55;;;;;;;8.73;2.47;;;16.90;79.30;;;;;;4849278;29;20040;-79
2021/10/04 10:55:21;;;;;;;7.95;2.22;;;17.00;79.20;;;;;;4837625;29;20030;-80
2021/10/04 10:58:32;;;;;;;5.40;1.23;;;17.10;79.20;;;;;;4837744;29;20050;-78
2021/10/04 11:00:39;;;;;;;4.18;1.10;;;17.00;78.50;;;;;;4842474;29;20141;-81
2021/10/04 11:03:19;;;;;;;3.97;0.88;;;17.10;78.10;;;;;;4837304;29;20212;-79
2021/10/04 11:06:02;;;;;;;10.20;1.50;;;17.10;77.20;;;;;;4833476;29;20037;-79
2021/10/04 11:08:28;;;;;;;9.15;1.73;;;17.20;76.90;;;;;;4850005;29;20083;-82
2021/10/04 11:10:57;;;;;;;3.85;1.15;;;17.20;76.60;;;;;;4837535;29;20116;-85
2021/10/04 11:13:30;;;;;;;4.15;1.50;;;17.30;76.20;;;;;;4847834;29;20121;-82
2021/10/04 11:16:00;;;;;;;4.20;1.10;;;17.40;75.50;;;;;;4855871;29;20045;-82
2021/10/04 11:18:47;;;;;;;5.95;1.30;;;17.40;75.30;;;;;;4847913;29;20182;-83
2021/10/04 11:21:19;;;;;;;3.58;0.90;;;17.50;75.10;;;;;;4820784;29;20479;-78
2021/10/04 11:23:51;;;;;;;2.97;1.15;;;17.70;75.30;;;;;;4849866;29;20029;-79
2021/10/04 11:26:22;;;;;;;8.15;1.38;;;17.80;75.20;;;;;;4855823;29;20417;-80
2021/10/04 11:28:54;;;;;;;3.38;1.63;;;18.00;75.20;;;;;;4853690;29;20030;-80
2021/10/04 11:31:22;;;;;;;6.25;1.92;;;18.10;74.90;;;;;;4855228;29;20037;-80
2021/10/04 11:33:56;;;;;;;3.38;0.90;;;18.20;74.80;;;;;;4841090;29;20041;-79
2021/10/04 11:36:44;;;;;;;3.53;1.23;;;18.30;74.50;;;;;;4835926;29;20049;-81
2021/10/04 11:39:19;;;;;;;3.30;0.90;;;18.40;74.30;;;;;;4835842;29;20407;-79
2021/10/04 11:42:02;;;;;;;3.72;0.80;;;18.40;74.00;;;;;;4835616;29;20121;-79
2021/10/04 11:44:29;;;;;;;4.93;1.20;;;18.40;73.70;;;;;;4836680;29;20512;-80
2021/10/04 11:47:02;;;;;;;3.90;1.35;;;18.50;74.00;;;;;;4843668;29;20045;-81
2021/10/04 11:49:36;;;;;;;5.68;1.38;;;18.60;73.90;;;;;;4838938;29;20082;-84
2021/10/04 11:52:06;;;;;;;4.85;1.10;;;18.60;73.70;;;;;;4836259;29;20041;-80
2021/10/04 11:54:33;;;;;;;5.63;1.05;;;18.60;73.50;;;;;;4855030;29;20102;-81
2021/10/04 11:56:59;;;;;;;6.80;1.75;;;18.60;73.40;;;;;;4853679;29;20070;-79
2021/10/04 11:59:26;;;;;;;12.65;1.60;;;18.60;73.00;;;;;;4854624;29;20136;-80
2021/10/04 12:01:54;;;;;;;6.55;1.00;;;18.50;72.30;;;;;;4855043;29;20481;-79
2021/10/04 12:04:21;;;;;;;5.72;1.10;;;18.40;71.90;;;;;;4852999;29;20034;-79
2021/10/04 12:06:48;;;;;;;4.13;0.82;;;18.40;71.80;;;;;;4853788;29;20276;-78
2021/10/04 12:09:17;;;;;;;6.88;1.08;;;18.30;71.40;;;;;;4853399;29;20525;-79
2021/10/04 12:11:56;;;;;;;9.30;2.13;;;18.30;71.40;;;;;;4854361;29;20475;-79
2021/10/04 12:14:24;;;;;;;6.15;0.98;;;18.30;71.00;;;;;;4854623;29;20145;-79
2021/10/04 12:16:52;;;;;;;17.48;4.85;;;18.30;71.00;;;;;;4854899;29;20041;-82
2021/10/04 12:19:18;;;;;;;9.63;2.95;;;18.40;70.90;;;;;;4840922;29;20435;-86
2021/10/04 12:21:50;;;;;;;9.50;2.22;;;18.40;70.80;;;;;;4836293;29;20026;-81
2021/10/04 12:24:28;;;;;;;6.05;2.00;;;18.50;70.90;;;;;;4836362;29;20048;-80
2021/10/04 12:27:09;;;;;;;10.73;2.28;;;18.60;71.00;;;;;;4836409;29;20102;-81
2021/10/04 12:29:54;;;;;;;5.25;1.50;;;18.80;71.20;;;;;;4816272;29;20140;-85
2021/10/04 12:32:31;;;;;;;7.65;1.95;;;18.90;71.10;;;;;;4845830;29;20368;-85
2021/10/04 12:35:09;;;;;;;4.13;1.60;;;19.00;71.10;;;;;;4835143;29;20309;-84
2021/10/04 12:38:06;;;;;;;4.38;1.15;;;19.20;71.00;;;;;;4834332;29;20133;-80
2021/10/04 12:40:43;;;;;;;6.93;2.00;;;19.20;70.60;;;;;;4835778;29;20044;-81
2021/10/04 12:43:28;;;;;;;3.17;1.23;;;19.30;70.80;;;;;;4835750;29;20034;-85
2021/10/04 12:46:07;;;;;;;4.25;1.15;;;19.50;70.70;;;;;;4846298;29;20061;-82
2021/10/04 12:48:38;;;;;;;4.60;1.10;;;19.50;70.50;;;;;;4845785;29;20057;-84
2021/10/04 12:51:14;;;;;;;5.80;1.10;;;19.70;70.40;;;;;;4836094;29;20482;-84
2021/10/04 12:53:44;;;;;;;7.13;2.47;;;19.70;70.20;;;;;;4835437;29;20129;-86
2021/10/04 12:56:10;;;;;;;3.92;1.23;;;19.90;70.10;;;;;;4835151;29;20176;-84